sensor_id;sensor_type;location;lat;lon;timestamp;temperature;humidity
30594;DHT22;33199;47.590;8.300;2022-11-20T00:00:52;12.50;74.90
30594;DHT22;33199;47.590;8.300;2022-11-20T00:03:18;12.50;74.90
30594;DHT22;33199;47.590;8.300;2022-11-20T00:05:44;12.50;74.90
30594;DHT22;33199;47.590;8.300;2022-11-20T00:08:09;12.50;74.90
30594;DHT22;33199;47.590;8.300;2022-11-20T00:10:38;12.50;74.90
30594;DHT22;33199;47.590;8.300;2022-11-20T00:13:04;12.50;74.90
30594;DHT22;33199;47.590;8.300;2022-11-20T00:15:29;12.50;74.90
30594;DHT22;33199;47.590;8.300;2022-11-20T00:17:55;12.50;75.70
30594;DHT22;33199;47.590;8.300;2022-11-20T00:20:20;12.50;74.90
30594;DHT22;33199;47.590;8.300;2022-11-20T00:22:46;12.50;74.80
30594;DHT22;33199;47.590;8.300;2022-11-20T00:25:12;12.50;74.90
30594;DHT22;33199;47.590;8.300;2022-11-20T00:27:37;12.50;74.90
30594;DHT22;33199;47.590;8.300;2022-11-20T00:30:03;12.50;74.90
30594;DHT22;33199;47.590;8.300;2022-11-20T00:32:29;12.50;74.90
30594;DHT22;33199;47.590;8.300;2022-11-20T00:34:54;12.50;74.90
30594;DHT22;33199;47.590;8.300;2022-11-20T00:37:21;12.50;74.80
30594;DHT22;33199;47.590;8.300;2022-11-20T00:39:46;12.50;74.80
30594;DHT22;33199;47.590;8.300;2022-11-20T00:42:12;12.50;74.80
30594;DHT22;33199;47.590;8.300;2022-11-20T00:44:37;12.50;74.90
30594;DHT22;33199;47.590;8.300;2022-11-20T00:47:03;12.50;74.90
30594;DHT22;33199;47.590;8.300;2022-11-20T00:49:28;12.50;74.90
30594;DHT22;33199;47.590;8.300;2022-11-20T00:51:54;12.50;74.80
30594;DHT22;33199;47.590;8.300;2022-11-20T00:54:19;12.50;74.80
30594;DHT22;33199;47.590;8.300;2022-11-20T00:56:45;12.50;74.80
30594;DHT22;33199;47.590;8.300;2022-11-20T00:59:10;12.50;74.80
30594;DHT22;33199;47.590;8.300;2022-11-20T01:01:36;12.50;74.80
30594;DHT22;33199;47.590;8.300;2022-11-20T01:04:02;12.50;74.80
30594;DHT22;33199;47.590;8.300;2022-11-20T01:06:34;12.50;74.80
30594;DHT22;33199;47.590;8.300;2022-11-20T01:09:05;12.50;75.60
30594;DHT22;33199;47.590;8.300;2022-11-20T01:11:31;12.50;74.90
30594;DHT22;33199;47.590;8.300;2022-11-20T01:13:58;12.50;74.80
30594;DHT22;33199;47.590;8.300;2022-11-20T01:16:24;12.50;74.90
30594;DHT22;33199;47.590;8.300;2022-11-20T01:18:51;12.50;74.80
30594;DHT22;33199;47.590;8.300;2022-11-20T01:21:19;12.50;74.70
30594;DHT22;33199;47.590;8.300;2022-11-20T01:23:45;12.50;74.80
30594;DHT22;33199;47.590;8.300;2022-11-20T01:26:11;12.50;74.80
30594;DHT22;33199;47.590;8.300;2022-11-20T01:28:38;12.50;74.70
30594;DHT22;33199;47.590;8.300;2022-11-20T01:31:18;12.40;74.70
30594;DHT22;33199;47.590;8.300;2022-11-20T01:33:45;12.50;74.80
30594;DHT22;33199;47.590;8.300;2022-11-20T01:36:12;12.50;74.80
30594;DHT22;33199;47.590;8.300;2022-11-20T01:38:38;12.40;74.70
30594;DHT22;33199;47.590;8.300;2022-11-20T01:41:03;12.40;74.80
30594;DHT22;33199;47.590;8.300;2022-11-20T01:43:29;12.40;74.70
30594;DHT22;33199;47.590;8.300;2022-11-20T01:48:23;12.40;74.70
30594;DHT22;33199;47.590;8.300;2022-11-20T01:50:51;12.40;74.70
30594;DHT22;33199;47.590;8.300;2022-11-20T01:53:18;12.50;74.70
30594;DHT22;33199;47.590;8.300;2022-11-20T01:55:45;12.40;74.70
30594;DHT22;33199;47.590;8.300;2022-11-20T01:58:12;12.40;74.60
30594;DHT22;33199;47.590;8.300;2022-11-20T02:00:38;12.40;74.70
30594;DHT22;33199;47.590;8.300;2022-11-20T02:03:05;12.40;74.70
30594;DHT22;33199;47.590;8.300;2022-11-20T02:05:38;12.40;74.60
30594;DHT22;33199;47.590;8.300;2022-11-20T02:08:05;12.40;74.60
30594;DHT22;33199;47.590;8.300;2022-11-20T02:10:31;12.40;74.70
30594;DHT22;33199;47.590;8.300;2022-11-20T02:12:57;12.40;74.60
30594;DHT22;33199;47.590;8.300;2022-11-20T02:15:41;12.40;74.60
30594;DHT22;33199;47.590;8.300;2022-11-20T02:18:07;12.40;74.70
30594;DHT22;33199;47.590;8.300;2022-11-20T02:20:33;12.40;74.60
30594;DHT22;33199;47.590;8.300;2022-11-20T02:23:00;12.40;74.60
30594;DHT22;33199;47.590;8.300;2022-11-20T02:25:28;12.40;74.60
30594;DHT22;33199;47.590;8.300;2022-11-20T02:27:56;12.40;74.70
30594;DHT22;33199;47.590;8.300;2022-11-20T02:30:21;12.40;74.70
30594;DHT22;33199;47.590;8.300;2022-11-20T02:32:47;12.40;74.70
30594;DHT22;33199;47.590;8.300;2022-11-20T02:37:44;12.40;74.60
30594;DHT22;33199;47.590;8.300;2022-11-20T02:40:10;12.40;74.60
30594;DHT22;33199;47.590;8.300;2022-11-20T02:42:36;12.40;74.70
30594;DHT22;33199;47.590;8.300;2022-11-20T02:45:01;12.40;74.60
30594;DHT22;33199;47.590;8.300;2022-11-20T02:47:27;12.40;74.60
30594;DHT22;33199;47.590;8.300;2022-11-20T02:49:52;12.40;74.50
30594;DHT22;33199;47.590;8.300;2022-11-20T02:52:18;12.40;74.50
30594;DHT22;33199;47.590;8.300;2022-11-20T02:54:43;12.40;74.50
30594;DHT22;33199;47.590;8.300;2022-11-20T02:57:08;12.40;74.50
30594;DHT22;33199;47.590;8.300;2022-11-20T02:59:34;12.40;74.50
30594;DHT22;33199;47.590;8.300;2022-11-20T03:02:00;12.40;74.50
30594;DHT22;33199;47.590;8.300;2022-11-20T03:04:25;12.40;74.50
30594;DHT22;33199;47.590;8.300;2022-11-20T03:06:51;12.40;74.50
30594;DHT22;33199;47.590;8.300;2022-11-20T03:09:16;12.40;74.50
30594;DHT22;33199;47.590;8.300;2022-11-20T03:11:42;12.40;74.50
30594;DHT22;33199;47.590;8.300;2022-11-20T03:14:07;12.40;74.50
30594;DHT22;33199;47.590;8.300;2022-11-20T03:16:33;12.40;74.50
30594;DHT22;33199;47.590;8.300;2022-11-20T03:18:58;12.40;74.50
30594;DHT22;33199;47.590;8.300;2022-11-20T03:21:24;12.40;74.50
30594;DHT22;33199;47.590;8.300;2022-11-20T03:23:49;12.40;74.50
30594;DHT22;33199;47.590;8.300;2022-11-20T03:26:22;12.40;74.60
30594;DHT22;33199;47.590;8.300;2022-11-20T03:28:49;12.40;74.50
30594;DHT22;33199;47.590;8.300;2022-11-20T03:31:15;12.30;74.50
30594;DHT22;33199;47.590;8.300;2022-11-20T03:33:41;12.40;74.50
30594;DHT22;33199;47.590;8.300;2022-11-20T03:36:08;12.40;74.50
30594;DHT22;33199;47.590;8.300;2022-11-20T03:38:34;12.30;74.50
30594;DHT22;33199;47.590;8.300;2022-11-20T03:41:00;12.30;74.60
30594;DHT22;33199;47.590;8.300;2022-11-20T03:43:26;12.40;74.50
30594;DHT22;33199;47.590;8.300;2022-11-20T03:45:51;12.30;74.40
30594;DHT22;33199;47.590;8.300;2022-11-20T03:48:17;12.30;74.40
30594;DHT22;33199;47.590;8.300;2022-11-20T03:50:42;12.40;74.50
30594;DHT22;33199;47.590;8.300;2022-11-20T03:53:07;12.40;74.50
30594;DHT22;33199;47.590;8.300;2022-11-20T03:55:33;12.40;74.40
30594;DHT22;33199;47.590;8.300;2022-11-20T03:57:58;12.40;74.40
30594;DHT22;33199;47.590;8.300;2022-11-20T04:00:24;12.40;74.40
30594;DHT22;33199;47.590;8.300;2022-11-20T04:02:49;12.40;74.40
30594;DHT22;33199;47.590;8.300;2022-11-20T04:05:15;12.40;74.50
30594;DHT22;33199;47.590;8.300;2022-11-20T04:07:40;12.40;74.40
30594;DHT22;33199;47.590;8.300;2022-11-20T04:10:06;12.40;74.40
30594;DHT22;33199;47.590;8.300;2022-11-20T04:12:32;12.30;74.40
30594;DHT22;33199;47.590;8.300;2022-11-20T04:14:57;12.30;74.40
30594;DHT22;33199;47.590;8.300;2022-11-20T04:17:23;12.30;74.40
30594;DHT22;33199;47.590;8.300;2022-11-20T04:19:48;12.30;74.40
30594;DHT22;33199;47.590;8.300;2022-11-20T04:22:13;12.30;74.40
30594;DHT22;33199;47.590;8.300;2022-11-20T04:24:39;12.30;74.40
30594;DHT22;33199;47.590;8.300;2022-11-20T04:27:04;12.30;74.30
30594;DHT22;33199;47.590;8.300;2022-11-20T04:29:30;12.40;74.30
30594;DHT22;33199;47.590;8.300;2022-11-20T04:31:57;12.30;74.40
30594;DHT22;33199;47.590;8.300;2022-11-20T04:34:22;12.30;74.40
30594;DHT22;33199;47.590;8.300;2022-11-20T04:36:48;12.30;74.40
30594;DHT22;33199;47.590;8.300;2022-11-20T04:39:14;12.30;74.40
30594;DHT22;33199;47.590;8.300;2022-11-20T04:41:40;12.30;74.40
30594;DHT22;33199;47.590;8.300;2022-11-20T04:44:06;12.30;74.40
30594;DHT22;33199;47.590;8.300;2022-11-20T04:46:32;12.30;74.40
30594;DHT22;33199;47.590;8.300;2022-11-20T04:48:58;12.30;74.40
30594;DHT22;33199;47.590;8.300;2022-11-20T04:51:24;12.30;74.40
30594;DHT22;33199;47.590;8.300;2022-11-20T04:53:50;12.30;74.40
30594;DHT22;33199;47.590;8.300;2022-11-20T04:56:15;12.30;74.40
30594;DHT22;33199;47.590;8.300;2022-11-20T04:58:41;12.30;74.50
30594;DHT22;33199;47.590;8.300;2022-11-20T05:01:09;12.30;74.50
30594;DHT22;33199;47.590;8.300;2022-11-20T05:03:34;12.30;74.40
30594;DHT22;33199;47.590;8.300;2022-11-20T05:06:00;12.30;74.40
30594;DHT22;33199;47.590;8.300;2022-11-20T05:08:26;12.30;74.30
30594;DHT22;33199;47.590;8.300;2022-11-20T05:10:52;12.30;74.40
30594;DHT22;33199;47.590;8.300;2022-11-20T05:13:17;12.30;74.40
30594;DHT22;33199;47.590;8.300;2022-11-20T05:15:43;12.30;74.40
30594;DHT22;33199;47.590;8.300;2022-11-20T05:18:08;12.30;74.40
30594;DHT22;33199;47.590;8.300;2022-11-20T05:20:34;12.30;74.40
30594;DHT22;33199;47.590;8.300;2022-11-20T05:23:01;12.30;74.40
30594;DHT22;33199;47.590;8.300;2022-11-20T05:25:27;12.30;74.30
30594;DHT22;33199;47.590;8.300;2022-11-20T05:27:52;12.30;74.40
30594;DHT22;33199;47.590;8.300;2022-11-20T05:30:18;12.30;75.20
30594;DHT22;33199;47.590;8.300;2022-11-20T05:32:43;12.30;74.40
30594;DHT22;33199;47.590;8.300;2022-11-20T05:35:09;12.30;74.40
30594;DHT22;33199;47.590;8.300;2022-11-20T05:37:34;12.30;74.40
30594;DHT22;33199;47.590;8.300;2022-11-20T05:40:00;12.30;74.40
30594;DHT22;33199;47.590;8.300;2022-11-20T05:42:25;12.30;74.40
30594;DHT22;33199;47.590;8.300;2022-11-20T05:44:57;12.30;74.40
30594;DHT22;33199;47.590;8.300;2022-11-20T05:47:23;12.30;75.10
30594;DHT22;33199;47.590;8.300;2022-11-20T05:49:49;12.30;74.40
30594;DHT22;33199;47.590;8.300;2022-11-20T05:52:14;12.30;74.30
30594;DHT22;33199;47.590;8.300;2022-11-20T05:54:40;12.30;74.40
30594;DHT22;33199;47.590;8.300;2022-11-20T05:57:05;12.30;74.40
30594;DHT22;33199;47.590;8.300;2022-11-20T05:59:30;12.30;74.40
30594;DHT22;33199;47.590;8.300;2022-11-20T06:01:56;12.30;74.40
30594;DHT22;33199;47.590;8.300;2022-11-20T06:04:21;12.30;74.40
30594;DHT22;33199;47.590;8.300;2022-11-20T06:06:47;12.30;74.40
30594;DHT22;33199;47.590;8.300;2022-11-20T06:09:12;12.30;74.40
30594;DHT22;33199;47.590;8.300;2022-11-20T06:11:38;12.30;74.40
30594;DHT22;33199;47.590;8.300;2022-11-20T06:14:03;12.30;74.40
30594;DHT22;33199;47.590;8.300;2022-11-20T06:16:29;12.30;74.40
30594;DHT22;33199;47.590;8.300;2022-11-20T06:18:54;12.20;74.30
30594;DHT22;33199;47.590;8.300;2022-11-20T06:21:20;12.20;74.40
30594;DHT22;33199;47.590;8.300;2022-11-20T06:23:46;12.30;74.40
30594;DHT22;33199;47.590;8.300;2022-11-20T06:26:18;12.30;74.40
30594;DHT22;33199;47.590;8.300;2022-11-20T06:28:44;12.20;74.30
30594;DHT22;33199;47.590;8.300;2022-11-20T06:31:10;12.20;74.40
30594;DHT22;33199;47.590;8.300;2022-11-20T06:33:36;12.20;74.40
30594;DHT22;33199;47.590;8.300;2022-11-20T06:36:02;12.30;74.40
30594;DHT22;33199;47.590;8.300;2022-11-20T06:38:28;12.20;74.40
30594;DHT22;33199;47.590;8.300;2022-11-20T06:40:54;12.30;74.30
30594;DHT22;33199;47.590;8.300;2022-11-20T06:43:21;12.30;74.30
30594;DHT22;33199;47.590;8.300;2022-11-20T06:45:50;12.20;74.30
30594;DHT22;33199;47.590;8.300;2022-11-20T06:48:16;12.20;74.30
30594;DHT22;33199;47.590;8.300;2022-11-20T06:50:41;12.30;74.40
30594;DHT22;33199;47.590;8.300;2022-11-20T06:53:07;12.30;74.40
30594;DHT22;33199;47.590;8.300;2022-11-20T06:55:32;12.20;74.20
30594;DHT22;33199;47.590;8.300;2022-11-20T06:57:58;12.20;74.20
30594;DHT22;33199;47.590;8.300;2022-11-20T07:00:23;12.30;74.30
30594;DHT22;33199;47.590;8.300;2022-11-20T07:02:49;12.20;74.30
30594;DHT22;33199;47.590;8.300;2022-11-20T07:05:15;12.20;74.30
30594;DHT22;33199;47.590;8.300;2022-11-20T07:07:40;12.30;74.40
30594;DHT22;33199;47.590;8.300;2022-11-20T07:10:06;12.20;74.30
30594;DHT22;33199;47.590;8.300;2022-11-20T07:12:32;12.20;75.10
30594;DHT22;33199;47.590;8.300;2022-11-20T07:14:57;12.20;74.30
30594;DHT22;33199;47.590;8.300;2022-11-20T07:17:23;12.20;74.30
30594;DHT22;33199;47.590;8.300;2022-11-20T07:19:48;12.20;74.30
30594;DHT22;33199;47.590;8.300;2022-11-20T07:22:14;12.30;74.40
30594;DHT22;33199;47.590;8.300;2022-11-20T07:24:39;12.20;74.30
30594;DHT22;33199;47.590;8.300;2022-11-20T07:27:05;12.20;74.30
30594;DHT22;33199;47.590;8.300;2022-11-20T07:29:30;12.20;74.20
30594;DHT22;33199;47.590;8.300;2022-11-20T07:31:56;12.20;74.20
30594;DHT22;33199;47.590;8.300;2022-11-20T07:34:22;12.20;74.20
30594;DHT22;33199;47.590;8.300;2022-11-20T07:36:47;12.20;74.20
30594;DHT22;33199;47.590;8.300;2022-11-20T07:39:13;12.20;74.20
30594;DHT22;33199;47.590;8.300;2022-11-20T07:41:38;12.20;74.20
30594;DHT22;33199;47.590;8.300;2022-11-20T07:44:04;12.20;74.20
30594;DHT22;33199;47.590;8.300;2022-11-20T07:46:29;12.20;74.20
30594;DHT22;33199;47.590;8.300;2022-11-20T07:48:55;12.20;74.20
30594;DHT22;33199;47.590;8.300;2022-11-20T07:51:20;12.20;74.20
30594;DHT22;33199;47.590;8.300;2022-11-20T07:53:46;12.20;74.20
30594;DHT22;33199;47.590;8.300;2022-11-20T07:56:11;12.20;74.20
30594;DHT22;33199;47.590;8.300;2022-11-20T07:58:37;12.20;74.20
30594;DHT22;33199;47.590;8.300;2022-11-20T08:01:03;12.20;74.20
30594;DHT22;33199;47.590;8.300;2022-11-20T08:03:29;12.20;74.20
30594;DHT22;33199;47.590;8.300;2022-11-20T08:05:56;12.20;74.20
30594;DHT22;33199;47.590;8.300;2022-11-20T08:08:23;12.20;74.30
30594;DHT22;33199;47.590;8.300;2022-11-20T08:10:48;12.20;74.30
30594;DHT22;33199;47.590;8.300;2022-11-20T08:13:14;12.20;74.60
30594;DHT22;33199;47.590;8.300;2022-11-20T08:15:58;12.20;74.30
30594;DHT22;33199;47.590;8.300;2022-11-20T08:18:24;12.20;74.30
30594;DHT22;33199;47.590;8.300;2022-11-20T08:20:49;12.20;74.30
30594;DHT22;33199;47.590;8.300;2022-11-20T08:23:14;12.20;74.30
30594;DHT22;33199;47.590;8.300;2022-11-20T08:25:40;12.20;74.40
30594;DHT22;33199;47.590;8.300;2022-11-20T08:28:06;12.20;74.40
30594;DHT22;33199;47.590;8.300;2022-11-20T08:30:32;12.20;74.30
30594;DHT22;33199;47.590;8.300;2022-11-20T08:33:05;12.20;75.10
30594;DHT22;33199;47.590;8.300;2022-11-20T08:35:37;12.20;74.30
30594;DHT22;33199;47.590;8.300;2022-11-20T08:38:03;12.20;74.30
30594;DHT22;33199;47.590;8.300;2022-11-20T08:40:29;12.20;74.30
30594;DHT22;33199;47.590;8.300;2022-11-20T08:42:55;12.20;74.30
30594;DHT22;33199;47.590;8.300;2022-11-20T08:45:20;12.20;74.40
30594;DHT22;33199;47.590;8.300;2022-11-20T08:47:46;12.20;74.40
30594;DHT22;33199;47.590;8.300;2022-11-20T08:50:12;12.20;74.30
30594;DHT22;33199;47.590;8.300;2022-11-20T08:52:38;12.20;74.20
30594;DHT22;33199;47.590;8.300;2022-11-20T08:55:04;12.20;74.30
30594;DHT22;33199;47.590;8.300;2022-11-20T08:57:33;12.20;74.40
30594;DHT22;33199;47.590;8.300;2022-11-20T08:59:58;12.10;68.40
30594;DHT22;33199;47.590;8.300;2022-11-20T09:02:24;12.00;69.50
30594;DHT22;33199;47.590;8.300;2022-11-20T09:04:50;12.00;71.70
30594;DHT22;33199;47.590;8.300;2022-11-20T09:07:15;12.00;71.80
30594;DHT22;33199;47.590;8.300;2022-11-20T09:09:41;12.00;71.80
30594;DHT22;33199;47.590;8.300;2022-11-20T09:12:06;12.00;71.90
30594;DHT22;33199;47.590;8.300;2022-11-20T09:14:32;12.00;72.10
30594;DHT22;33199;47.590;8.300;2022-11-20T09:16:57;12.00;72.20
30594;DHT22;33199;47.590;8.300;2022-11-20T09:19:26;12.00;72.20
30594;DHT22;33199;47.590;8.300;2022-11-20T09:21:51;12.00;72.30
30594;DHT22;33199;47.590;8.300;2022-11-20T09:24:17;12.10;72.50
30594;DHT22;33199;47.590;8.300;2022-11-20T09:26:43;12.10;72.50
30594;DHT22;33199;47.590;8.300;2022-11-20T09:29:08;12.10;72.50
30594;DHT22;33199;47.590;8.300;2022-11-20T09:31:34;12.10;72.60
30594;DHT22;33199;47.590;8.300;2022-11-20T09:33:59;12.10;72.60
30594;DHT22;33199;47.590;8.300;2022-11-20T09:36:25;12.10;72.60
30594;DHT22;33199;47.590;8.300;2022-11-20T09:38:50;12.10;72.70
30594;DHT22;33199;47.590;8.300;2022-11-20T09:46:53;12.10;73.00
30594;DHT22;33199;47.590;8.300;2022-11-20T09:51:53;12.10;73.00
30594;DHT22;33199;47.590;8.300;2022-11-20T09:54:22;12.10;73.10
30594;DHT22;33199;47.590;8.300;2022-11-20T09:57:01;12.10;73.10
30594;DHT22;33199;47.590;8.300;2022-11-20T10:02:14;12.10;73.20
30594;DHT22;33199;47.590;8.300;2022-11-20T10:04:42;12.10;73.30
30594;DHT22;33199;47.590;8.300;2022-11-20T10:07:12;12.10;73.30
30594;DHT22;33199;47.590;8.300;2022-11-20T10:09:40;12.10;73.30
30594;DHT22;33199;47.590;8.300;2022-11-20T10:12:14;12.10;73.30
30594;DHT22;33199;47.590;8.300;2022-11-20T10:17:13;12.10;73.40
30594;DHT22;33199;47.590;8.300;2022-11-20T10:19:47;12.10;73.40
30594;DHT22;33199;47.590;8.300;2022-11-20T10:22:20;12.10;73.50
30594;DHT22;33199;47.590;8.300;2022-11-20T10:27:23;12.10;73.50
30594;DHT22;33199;47.590;8.300;2022-11-20T10:30:00;12.10;73.50
30594;DHT22;33199;47.590;8.300;2022-11-20T10:32:28;12.10;73.60
30594;DHT22;33199;47.590;8.300;2022-11-20T10:35:00;12.10;73.60
30594;DHT22;33199;47.590;8.300;2022-11-20T10:37:26;12.10;73.60
30594;DHT22;33199;47.590;8.300;2022-11-20T10:42:26;12.10;73.60
30594;DHT22;33199;47.590;8.300;2022-11-20T10:44:53;12.10;73.60
30594;DHT22;33199;47.590;8.300;2022-11-20T10:47:26;12.10;73.60
30594;DHT22;33199;47.590;8.300;2022-11-20T10:49:53;12.10;73.60
30594;DHT22;33199;47.590;8.300;2022-11-20T10:52:27;12.10;73.70
30594;DHT22;33199;47.590;8.300;2022-11-20T11:00:17;12.10;73.80
30594;DHT22;33199;47.590;8.300;2022-11-20T11:02:47;12.10;73.80
30594;DHT22;33199;47.590;8.300;2022-11-20T11:07:57;12.20;73.80
30594;DHT22;33199;47.590;8.300;2022-11-20T11:10:29;12.10;73.70
30594;DHT22;33199;47.590;8.300;2022-11-20T11:12:57;12.10;73.80
30594;DHT22;33199;47.590;8.300;2022-11-20T11:17:54;12.10;73.70
30594;DHT22;33199;47.590;8.300;2022-11-20T11:20:21;12.10;73.70
30594;DHT22;33199;47.590;8.300;2022-11-20T11:22:48;12.10;73.70
30594;DHT22;33199;47.590;8.300;2022-11-20T11:25:24;12.10;73.70
30594;DHT22;33199;47.590;8.300;2022-11-20T11:27:50;12.10;73.70
30594;DHT22;33199;47.590;8.300;2022-11-20T11:30:17;12.20;73.70
30594;DHT22;33199;47.590;8.300;2022-11-20T11:32:43;12.20;73.70
30594;DHT22;33199;47.590;8.300;2022-11-20T11:35:18;12.10;73.60
30594;DHT22;33199;47.590;8.300;2022-11-20T11:37:44;12.10;73.70
30594;DHT22;33199;47.590;8.300;2022-11-20T11:40:11;12.20;73.80
30594;DHT22;33199;47.590;8.300;2022-11-20T11:42:41;12.20;73.80
30594;DHT22;33199;47.590;8.300;2022-11-20T11:45:11;12.10;73.70
30594;DHT22;33199;47.590;8.300;2022-11-20T11:52:43;12.10;73.80
30594;DHT22;33199;47.590;8.300;2022-11-20T11:55:11;12.20;73.80
30594;DHT22;33199;47.590;8.300;2022-11-20T11:57:42;12.10;73.70
30594;DHT22;33199;47.590;8.300;2022-11-20T12:00:10;12.10;73.70
30594;DHT22;33199;47.590;8.300;2022-11-20T12:05:16;12.10;73.70
30594;DHT22;33199;47.590;8.300;2022-11-20T12:07:47;12.20;73.80
30594;DHT22;33199;47.590;8.300;2022-11-20T12:10:21;12.10;73.70
30594;DHT22;33199;47.590;8.300;2022-11-20T12:12:51;12.10;73.70
30594;DHT22;33199;47.590;8.300;2022-11-20T12:15:32;12.10;73.80
30594;DHT22;33199;47.590;8.300;2022-11-20T12:17:58;12.10;73.70
30594;DHT22;33199;47.590;8.300;2022-11-20T12:20:26;12.10;73.80
30594;DHT22;33199;47.590;8.300;2022-11-20T12:23:02;12.20;73.80
30594;DHT22;33199;47.590;8.300;2022-11-20T12:25:31;12.20;73.80
30594;DHT22;33199;47.590;8.300;2022-11-20T12:30:41;12.10;73.70
30594;DHT22;33199;47.590;8.300;2022-11-20T12:43:31;12.20;73.80
30594;DHT22;33199;47.590;8.300;2022-11-20T12:46:39;12.10;73.70
30594;DHT22;33199;47.590;8.300;2022-11-20T13:07:12;12.20;74.00
30594;DHT22;33199;47.590;8.300;2022-11-20T13:09:40;12.10;74.70
30594;DHT22;33199;47.590;8.300;2022-11-20T13:12:18;12.20;73.90
30594;DHT22;33199;47.590;8.300;2022-11-20T13:20:14;12.20;73.90
30594;DHT22;33199;47.590;8.300;2022-11-20T13:25:30;12.20;73.90
30594;DHT22;33199;47.590;8.300;2022-11-20T13:27:54;12.20;74.00
30594;DHT22;33199;47.590;8.300;2022-11-20T13:30:24;12.20;73.90
30594;DHT22;33199;47.590;8.300;2022-11-20T13:32:54;12.20;73.90
30594;DHT22;33199;47.590;8.300;2022-11-20T13:35:24;12.20;74.00
30594;DHT22;33199;47.590;8.300;2022-11-20T13:37:59;12.20;74.00
30594;DHT22;33199;47.590;8.300;2022-11-20T13:40:24;12.20;74.00
30594;DHT22;33199;47.590;8.300;2022-11-20T13:45:26;12.20;74.00
30594;DHT22;33199;47.590;8.300;2022-11-20T13:47:52;12.20;74.00
30594;DHT22;33199;47.590;8.300;2022-11-20T13:50:18;12.20;74.00
30594;DHT22;33199;47.590;8.300;2022-11-20T13:52:48;12.20;73.90
30594;DHT22;33199;47.590;8.300;2022-11-20T13:55:31;12.20;74.00
30594;DHT22;33199;47.590;8.300;2022-11-20T13:58:04;12.20;73.90
30594;DHT22;33199;47.590;8.300;2022-11-20T14:00:32;12.20;73.90
30594;DHT22;33199;47.590;8.300;2022-11-20T14:05:23;12.20;74.00
30594;DHT22;33199;47.590;8.300;2022-11-20T14:07:49;12.20;74.00
30594;DHT22;33199;47.590;8.300;2022-11-20T14:10:23;12.20;74.00
30594;DHT22;33199;47.590;8.300;2022-11-20T14:12:48;12.20;74.00
30594;DHT22;33199;47.590;8.300;2022-11-20T14:17:50;12.20;74.00
30594;DHT22;33199;47.590;8.300;2022-11-20T14:20:15;12.20;74.10
30594;DHT22;33199;47.590;8.300;2022-11-20T14:22:50;12.20;74.10
30594;DHT22;33199;47.590;8.300;2022-11-20T14:27:42;12.20;74.10
30594;DHT22;33199;47.590;8.300;2022-11-20T14:30:14;12.20;74.10
30594;DHT22;33199;47.590;8.300;2022-11-20T14:32:40;12.20;74.10
30594;DHT22;33199;47.590;8.300;2022-11-20T14:35:07;12.30;74.10
30594;DHT22;33199;47.590;8.300;2022-11-20T14:37:35;12.20;74.10
30594;DHT22;33199;47.590;8.300;2022-11-20T14:40:02;12.20;74.00
30594;DHT22;33199;47.590;8.300;2022-11-20T14:42:28;12.20;74.00
30594;DHT22;33199;47.590;8.300;2022-11-20T14:44:57;12.20;74.00
30594;DHT22;33199;47.590;8.300;2022-11-20T14:47:24;12.20;73.90
30594;DHT22;33199;47.590;8.300;2022-11-20T14:49:51;12.20;74.00
30594;DHT22;33199;47.590;8.300;2022-11-20T14:52:22;12.20;74.00
30594;DHT22;33199;47.590;8.300;2022-11-20T14:54:48;12.20;74.00
30594;DHT22;33199;47.590;8.300;2022-11-20T14:59:46;12.30;74.10
30594;DHT22;33199;47.590;8.300;2022-11-20T15:02:11;12.20;74.00
30594;DHT22;33199;47.590;8.300;2022-11-20T15:04:47;12.30;74.10
30594;DHT22;33199;47.590;8.300;2022-11-20T15:07:22;12.30;74.10
30594;DHT22;33199;47.590;8.300;2022-11-20T15:09:58;12.20;74.00
30594;DHT22;33199;47.590;8.300;2022-11-20T15:12:23;12.20;74.10
30594;DHT22;33199;47.590;8.300;2022-11-20T15:14:49;12.30;74.10
30594;DHT22;33199;47.590;8.300;2022-11-20T15:17:15;12.20;74.00
30594;DHT22;33199;47.590;8.300;2022-11-20T15:19:40;12.20;74.10
30594;DHT22;33199;47.590;8.300;2022-11-20T15:22:08;12.20;74.10
30594;DHT22;33199;47.590;8.300;2022-11-20T15:24:37;12.20;74.20
30594;DHT22;33199;47.590;8.300;2022-11-20T15:27:03;12.20;74.10
30594;DHT22;33199;47.590;8.300;2022-11-20T15:29:28;12.20;74.00
30594;DHT22;33199;47.590;8.300;2022-11-20T15:31:54;12.30;74.10
30594;DHT22;33199;47.590;8.300;2022-11-20T15:34:19;12.20;74.10
30594;DHT22;33199;47.590;8.300;2022-11-20T15:36:45;12.30;74.10
30594;DHT22;33199;47.590;8.300;2022-11-20T15:39:10;12.20;74.10
30594;DHT22;33199;47.590;8.300;2022-11-20T15:41:36;12.30;74.20
30594;DHT22;33199;47.590;8.300;2022-11-20T15:44:03;12.20;74.20
30594;DHT22;33199;47.590;8.300;2022-11-20T15:46:31;12.20;74.20
30594;DHT22;33199;47.590;8.300;2022-11-20T15:49:03;12.20;74.20
30594;DHT22;33199;47.590;8.300;2022-11-20T15:51:33;12.20;74.20
30594;DHT22;33199;47.590;8.300;2022-11-20T15:53:59;12.30;74.20
30594;DHT22;33199;47.590;8.300;2022-11-20T15:56:25;12.20;74.10
30594;DHT22;33199;47.590;8.300;2022-11-20T15:58:51;12.20;74.10
30594;DHT22;33199;47.590;8.300;2022-11-20T16:01:18;12.20;74.10
30594;DHT22;33199;47.590;8.300;2022-11-20T16:03:44;12.30;74.20
30594;DHT22;33199;47.590;8.300;2022-11-20T16:06:09;12.20;74.10
30594;DHT22;33199;47.590;8.300;2022-11-20T16:08:35;12.20;74.10
30594;DHT22;33199;47.590;8.300;2022-11-20T16:11:01;12.20;74.00
30594;DHT22;33199;47.590;8.300;2022-11-20T16:13:26;12.30;74.20
30594;DHT22;33199;47.590;8.300;2022-11-20T16:16:18;12.30;74.20
30594;DHT22;33199;47.590;8.300;2022-11-20T16:18:44;12.20;74.10
30594;DHT22;33199;47.590;8.300;2022-11-20T16:21:10;12.30;74.20
30594;DHT22;33199;47.590;8.300;2022-11-20T16:23:37;12.20;74.10
30594;DHT22;33199;47.590;8.300;2022-11-20T16:26:08;12.30;74.20
30594;DHT22;33199;47.590;8.300;2022-11-20T16:28:34;12.20;74.10
30594;DHT22;33199;47.590;8.300;2022-11-20T16:31:07;12.20;74.20
30594;DHT22;33199;47.590;8.300;2022-11-20T16:33:32;12.20;74.20
30594;DHT22;33199;47.590;8.300;2022-11-20T16:35:58;12.30;74.20
30594;DHT22;33199;47.590;8.300;2022-11-20T16:38:31;12.20;74.20
30594;DHT22;33199;47.590;8.300;2022-11-20T16:41:00;12.20;74.20
30594;DHT22;33199;47.590;8.300;2022-11-20T16:43:25;12.20;74.10
30594;DHT22;33199;47.590;8.300;2022-11-20T16:45:50;12.30;74.20
30594;DHT22;33199;47.590;8.300;2022-11-20T16:48:16;12.20;74.10
30594;DHT22;33199;47.590;8.300;2022-11-20T16:50:49;12.20;74.20
30594;DHT22;33199;47.590;8.300;2022-11-20T16:53:14;12.30;74.20
30594;DHT22;33199;47.590;8.300;2022-11-20T16:55:40;12.20;74.10
30594;DHT22;33199;47.590;8.300;2022-11-20T16:58:05;12.30;74.20
30594;DHT22;33199;47.590;8.300;2022-11-20T17:00:31;12.20;74.10
30594;DHT22;33199;47.590;8.300;2022-11-20T17:02:56;12.20;74.00